Bray, Oklahoma
Current Conditions -  °F | °C
As of 9:55 AM on Friday 28 Nov 2014 (Local Time) from KDUC Reporting Station
Clear Clear  
Wind Chill: 52°   Ceiling: Unl
Heat Index: 52°   Visibility: 10mi
Dew Point: 37°   Wind: 13mph
Humidity: 58%   Direction: 200°SSW
Pressure: 30.12"   Gusts: 21mph
Location:  34.61°N, 97.82°W
Report Text: KDUC 281555Z AUTO 20011G18KT 10SM CLR 11/03 A3012 RMK AO2
Loading
Personal Weather Stations






























Interactive Weather Map New forecast layout! Learn more

10-Day Weather Forecast

Advertisements
Track Severe Weather on mobile